Time;durP1;ratioP1;P1;durP2;ratioP2;P2;SDS_P1;SDS_P2;PMS_P1;PMS_P2;Temp;Humidity;BMP_temperature;BMP_pressure;BME280_temperature;BME280_humidity;BME280_pressure;Samples;Min_cycle;Max_cycle;Signal;HPM_P1;HPM_P2
2023/07/24 00:02:12;;;;;;;4.75;2.88;;;18.50;92.00;;;;;;4984968;28;20104;-72
2023/07/24 00:04:38;;;;;;;5.32;2.72;;;18.50;92.00;;;;;;4989890;28;20073;-72
2023/07/24 00:07:04;;;;;;;4.60;2.42;;;18.40;92.20;;;;;;4989078;28;20041;-72
2023/07/24 00:09:30;;;;;;;4.68;2.53;;;18.40;92.10;;;;;;4995635;28;20554;-73
2023/07/24 00:11:55;;;;;;;6.35;3.15;;;18.40;92.10;;;;;;4989788;28;20120;-73
2023/07/24 00:14:21;;;;;;;5.10;2.50;;;18.40;92.10;;;;;;4989306;28;20057;-73
2023/07/24 00:16:47;;;;;;;5.82;2.47;;;18.40;92.10;;;;;;4984811;28;20050;-76
2023/07/24 00:19:14;;;;;;;5.70;2.72;;;18.40;92.10;;;;;;4986502;28;20526;-74
2023/07/24 00:21:39;;;;;;;6.63;2.70;;;18.30;92.00;;;;;;4987565;28;20093;-74
2023/07/24 00:24:05;;;;;;;6.65;3.10;;;18.30;92.10;;;;;;4991844;28;20438;-72
2023/07/24 00:26:31;;;;;;;5.38;2.97;;;18.30;92.00;;;;;;4986247;28;20061;-72
2023/07/24 00:29:00;;;;;;;5.20;2.97;;;18.30;92.10;;;;;;4984451;28;20140;-74
2023/07/24 00:31:25;;;;;;;5.78;3.00;;;18.30;92.10;;;;;;4989177;28;20479;-74
2023/07/24 00:33:51;;;;;;;6.55;2.78;;;18.30;92.20;;;;;;4987516;28;20097;-74
2023/07/24 00:36:17;;;;;;;5.82;2.78;;;18.30;92.20;;;;;;4986550;28;20066;-76
2023/07/24 00:38:42;;;;;;;5.95;3.08;;;18.30;92.30;;;;;;4985393;28;20535;-73
2023/07/24 00:41:08;;;;;;;5.85;3.10;;;18.20;92.30;;;;;;4986999;28;20053;-74
2023/07/24 00:43:35;;;;;;;6.32;3.42;;;18.20;92.20;;;;;;4987889;28;20034;-72
2023/07/24 00:46:01;;;;;;;6.70;3.33;;;18.20;92.10;;;;;;4993812;28;20027;-73
2023/07/24 00:48:27;;;;;;;5.90;3.17;;;18.20;92.10;;;;;;5007650;28;20136;-72
2023/07/24 00:50:54;;;;;;;7.53;3.47;;;18.10;92.10;;;;;;4983020;28;20050;-73
2023/07/24 00:53:20;;;;;;;6.88;3.53;;;18.10;92.10;;;;;;4990442;28;20045;-72
2023/07/24 00:55:46;;;;;;;7.85;3.13;;;18.10;92.10;;;;;;4990512;28;20112;-73
2023/07/24 00:58:12;;;;;;;5.70;3.15;;;18.10;92.10;;;;;;4983494;28;20117;-74
2023/07/24 01:00:41;;;;;;;6.22;2.60;;;18.10;92.00;;;;;;4981572;28;20109;-76
2023/07/24 01:03:07;;;;;;;5.93;3.10;;;18.10;92.00;;;;;;4989394;28;20453;-73
2023/07/24 01:05:33;;;;;;;8.50;3.50;;;18.10;92.00;;;;;;5005481;28;20033;-74
2023/07/24 01:07:59;;;;;;;7.88;3.47;;;18.10;92.00;;;;;;5002176;28;20026;-73
2023/07/24 01:10:25;;;;;;;6.40;3.25;;;18.10;92.00;;;;;;4997845;28;20045;-73
2023/07/24 01:13:10;;;;;;;6.65;3.10;;;18.10;91.90;;;;;;4999555;28;20034;-73
2023/07/24 01:15:45;;;;;;;7.57;3.50;;;18.10;92.00;;;;;;4983201;28;20598;-75
2023/07/24 01:18:13;;;;;;;6.57;3.50;;;18.10;92.00;;;;;;4983786;28;20041;-74
2023/07/24 01:20:46;;;;;;;7.00;3.40;;;18.00;92.00;;;;;;4997079;28;20390;-73
2023/07/24 01:23:25;;;;;;;6.13;3.42;;;18.00;91.90;;;;;;4986206;28;20481;-74
2023/07/24 01:25:58;;;;;;;7.30;3.00;;;18.00;92.00;;;;;;4983283;28;20459;-74
2023/07/24 01:28:28;;;;;;;5.88;3.28;;;18.00;91.90;;;;;;4993353;28;20080;-74
2023/07/24 01:30:54;;;;;;;7.03;3.28;;;18.00;91.90;;;;;;4989666;28;20137;-74
2023/07/24 01:33:20;;;;;;;6.03;3.33;;;18.10;91.90;;;;;;4991165;28;20022;-72
2023/07/24 01:35:50;;;;;;;5.05;3.10;;;18.10;91.70;;;;;;4987100;28;20038;-76
2023/07/24 01:38:16;;;;;;;6.55;3.30;;;18.00;91.80;;;;;;4987240;28;20105;-74
2023/07/24 01:40:42;;;;;;;6.75;3.05;;;18.00;91.70;;;;;;4991595;28;20081;-74
2023/07/24 01:43:09;;;;;;;7.95;3.83;;;18.00;91.80;;;;;;4988501;28;20675;-73
2023/07/24 01:45:35;;;;;;;6.68;3.50;;;17.90;91.70;;;;;;4986155;28;20374;-75
2023/07/24 01:48:03;;;;;;;6.10;3.47;;;17.90;91.70;;;;;;4994285;28;20517;-77
2023/07/24 01:50:29;;;;;;;7.82;3.75;;;17.90;91.80;;;;;;4988322;28;20030;-74
2023/07/24 01:52:54;;;;;;;6.32;3.60;;;17.90;91.80;;;;;;5003879;28;20068;-74
2023/07/24 01:55:20;;;;;;;8.25;3.97;;;17.80;91.90;;;;;;4995474;28;20054;-74
2023/07/24 01:57:46;;;;;;;7.55;4.40;;;17.80;91.60;;;;;;5003334;28;20582;-74
2023/07/24 02:00:12;;;;;;;8.20;4.57;;;17.80;91.40;;;;;;4988593;28;20052;-74
2023/07/24 02:02:37;;;;;;;8.23;5.15;;;17.70;91.40;;;;;;4989413;28;20119;-74
2023/07/24 02:05:03;;;;;;;10.00;4.40;;;17.70;91.40;;;;;;4987607;28;20115;-77
2023/07/24 02:07:29;;;;;;;8.25;4.50;;;17.60;91.30;;;;;;4986425;28;20137;-75
2023/07/24 02:09:55;;;;;;;7.00;4.57;;;17.60;91.20;;;;;;4996195;28;20391;-75
2023/07/24 02:12:21;;;;;;;7.65;4.45;;;17.60;91.30;;;;;;4998447;28;20509;-73
2023/07/24 02:14:49;;;;;;;7.55;4.38;;;17.50;91.40;;;;;;4996754;28;20105;-77
2023/07/24 02:17:15;;;;;;;7.90;4.43;;;17.50;91.50;;;;;;4987532;28;20034;-73
2023/07/24 02:19:41;;;;;;;6.82;4.13;;;17.50;91.50;;;;;;4988382;28;20027;-73
2023/07/24 02:22:07;;;;;;;7.25;4.00;;;17.50;91.50;;;;;;4987368;28;20042;-76
2023/07/24 02:24:33;;;;;;;6.65;3.70;;;17.40;91.50;;;;;;4987836;28;20029;-73
2023/07/24 02:26:58;;;;;;;7.45;4.75;;;17.40;91.60;;;;;;4992712;28;20576;-72
2023/07/24 02:29:24;;;;;;;8.00;3.92;;;17.50;91.60;;;;;;4990795;28;20035;-73
2023/07/24 02:31:50;;;;;;;7.68;4.20;;;17.40;91.50;;;;;;4988298;28;20046;-73
2023/07/24 02:34:16;;;;;;;6.95;4.22;;;17.40;91.60;;;;;;4989023;28;20092;-73
2023/07/24 02:36:42;;;;;;;7.95;4.32;;;17.40;91.70;;;;;;4995995;28;20031;-74
2023/07/24 02:39:08;;;;;;;7.90;4.53;;;17.40;91.70;;;;;;4989563;28;20030;-73
2023/07/24 02:41:33;;;;;;;8.43;3.88;;;17.40;91.70;;;;;;4986674;28;20591;-73
2023/07/24 02:43:59;;;;;;;7.20;4.25;;;17.40;91.60;;;;;;4987830;28;20030;-75
2023/07/24 02:46:25;;;;;;;8.23;3.78;;;17.40;91.70;;;;;;4994479;28;20077;-73
2023/07/24 02:48:54;;;;;;;7.60;3.97;;;17.30;91.80;;;;;;4988380;28;20052;-74
2023/07/24 02:51:19;;;;;;;7.80;3.90;;;17.40;91.80;;;;;;5005977;28;20034;-73
2023/07/24 02:53:45;;;;;;;7.80;4.20;;;17.30;91.70;;;;;;5011968;28;20022;-73
2023/07/24 02:56:10;;;;;;;8.13;4.32;;;17.30;91.80;;;;;;4990186;28;20042;-76
2023/07/24 02:58:36;;;;;;;8.07;3.90;;;17.30;91.80;;;;;;4987820;28;20679;-76
2023/07/24 03:01:06;;;;;;;7.47;4.10;;;17.40;91.70;;;;;;4986877;28;20046;-73
2023/07/24 03:03:33;;;;;;;7.30;4.60;;;17.40;91.70;;;;;;4988451;28;20041;-76
2023/07/24 03:05:59;;;;;;;7.43;4.25;;;17.30;91.80;;;;;;4985439;28;20023;-76
2023/07/24 03:08:24;;;;;;;6.53;4.03;;;17.30;91.70;;;;;;4987696;28;20482;-73
2023/07/24 03:10:50;;;;;;;7.72;4.30;;;17.40;91.80;;;;;;4993646;28;20759;-73
2023/07/24 03:13:16;;;;;;;6.55;3.75;;;17.40;91.60;;;;;;4989981;28;20105;-73
2023/07/24 03:15:41;;;;;;;7.05;4.15;;;17.30;91.60;;;;;;4985099;28;20514;-73
2023/07/24 03:18:07;;;;;;;7.93;4.07;;;17.30;91.50;;;;;;4998367;28;20034;-75
2023/07/24 03:20:33;;;;;;;7.30;4.45;;;17.30;91.50;;;;;;4998890;28;20046;-74
2023/07/24 03:22:58;;;;;;;8.38;4.47;;;17.20;91.50;;;;;;4990956;28;20088;-75
2023/07/24 03:25:24;;;;;;;6.88;4.35;;;17.20;91.50;;;;;;4988659;28;20240;-74
2023/07/24 03:27:50;;;;;;;7.90;4.70;;;17.20;91.50;;;;;;4997504;28;20353;-74
2023/07/24 03:30:15;;;;;;;7.65;4.10;;;17.10;91.50;;;;;;4989754;28;20022;-72
2023/07/24 03:32:41;;;;;;;8.23;4.15;;;17.20;91.50;;;;;;4987129;28;20061;-71
2023/07/24 03:35:07;;;;;;;7.10;4.43;;;17.10;91.50;;;;;;4995562;28;20022;-75
2023/07/24 03:37:36;;;;;;;7.65;4.38;;;17.20;91.60;;;;;;5000516;28;20824;-73
2023/07/24 03:40:01;;;;;;;7.13;4.43;;;17.10;91.60;;;;;;5000664;28;20551;-72
2023/07/24 03:42:29;;;;;;;7.43;4.00;;;17.20;91.60;;;;;;4985581;28;20022;-73
2023/07/24 03:44:55;;;;;;;7.15;4.22;;;17.20;91.60;;;;;;4988590;28;20026;-73
2023/07/24 03:47:21;;;;;;;8.15;4.43;;;17.10;91.60;;;;;;4987110;28;20069;-74
2023/07/24 03:49:47;;;;;;;7.32;4.32;;;17.10;91.60;;;;;;5017324;28;20111;-72
2023/07/24 03:52:12;;;;;;;6.80;4.25;;;17.10;91.70;;;;;;5002435;28;20038;-74
2023/07/24 03:54:38;;;;;;;7.60;4.30;;;17.10;91.80;;;;;;4988361;28;20022;-74
2023/07/24 03:57:04;;;;;;;7.70;4.22;;;17.10;91.80;;;;;;4996620;28;20038;-74
2023/07/24 03:59:30;;;;;;;7.82;4.13;;;17.10;91.80;;;;;;4996988;28;20026;-73
2023/07/24 04:01:57;;;;;;;7.13;4.20;;;17.10;91.80;;;;;;4995546;28;20030;-75
2023/07/24 04:04:22;;;;;;;8.38;4.53;;;17.10;91.80;;;;;;4989450;28;20044;-74
2023/07/24 04:06:48;;;;;;;7.10;4.57;;;17.10;91.80;;;;;;4992768;28;20034;-76
2023/07/24 04:09:17;;;;;;;8.00;4.53;;;17.10;91.80;;;;;;4987694;28;20030;-73
2023/07/24 04:11:43;;;;;;;7.05;4.50;;;17.00;91.80;;;;;;4985218;28;20045;-75
2023/07/24 04:14:09;;;;;;;8.13;4.85;;;17.10;92.00;;;;;;4983942;28;20118;-75
2023/07/24 04:16:35;;;;;;;7.45;4.28;;;17.10;91.90;;;;;;5000050;28;20046;-76
2023/07/24 04:19:01;;;;;;;8.30;4.50;;;17.00;91.90;;;;;;4987324;28;20053;-74
2023/07/24 04:21:26;;;;;;;7.97;4.40;;;17.10;92.00;;;;;;4985469;28;20403;-73
2023/07/24 04:23:52;;;;;;;7.10;4.40;;;17.10;91.80;;;;;;4986275;28;20045;-74
2023/07/24 04:26:18;;;;;;;7.60;4.60;;;17.10;92.00;;;;;;4988016;28;20053;-75
2023/07/24 04:28:43;;;;;;;7.38;3.92;;;17.10;92.00;;;;;;4988644;28;20042;-74
2023/07/24 04:31:09;;;;;;;7.72;4.50;;;17.10;92.00;;;;;;4979929;28;20096;-73
2023/07/24 04:33:35;;;;;;;8.80;4.80;;;17.10;91.90;;;;;;4987403;28;20050;-73
2023/07/24 04:36:00;;;;;;;7.30;4.75;;;17.10;92.00;;;;;;4983966;28;20053;-76
2023/07/24 04:38:26;;;;;;;7.68;4.28;;;17.10;92.00;;;;;;4988474;28;20122;-73
2023/07/24 04:40:52;;;;;;;6.88;4.15;;;17.10;92.00;;;;;;4990227;28;20123;-73
2023/07/24 04:43:18;;;;;;;8.82;4.63;;;17.10;92.00;;;;;;4986035;28;20023;-76
2023/07/24 04:45:43;;;;;;;8.57;4.22;;;17.10;92.00;;;;;;4991145;28;20519;-74
2023/07/24 04:48:09;;;;;;;8.27;4.43;;;17.20;92.00;;;;;;4997221;28;20508;-73
2023/07/24 04:50:34;;;;;;;8.27;4.90;;;17.20;92.00;;;;;;4996762;28;20192;-73
2023/07/24 04:53:00;;;;;;;9.32;4.50;;;17.10;91.90;;;;;;4993947;28;20124;-73
2023/07/24 04:55:26;;;;;;;7.25;4.53;;;17.20;92.00;;;;;;4993491;28;20089;-73
2023/07/24 04:57:51;;;;;;;9.70;5.18;;;17.30;92.00;;;;;;4996800;28;20031;-73
2023/07/24 05:00:17;;;;;;;8.38;5.05;;;17.30;91.90;;;;;;4995565;28;20611;-73
2023/07/24 05:02:43;;;;;;;6.97;4.43;;;17.30;91.90;;;;;;5014380;28;20421;-73
2023/07/24 05:05:09;;;;;;;9.30;5.20;;;17.30;92.00;;;;;;5014120;28;20027;-73
2023/07/24 05:07:35;;;;;;;7.47;4.63;;;17.30;92.00;;;;;;5007334;28;20502;-75
2023/07/24 05:10:00;;;;;;;14.32;4.78;;;17.30;91.90;;;;;;4986658;28;20475;-73
2023/07/24 05:12:26;;;;;;;8.18;4.72;;;17.30;91.90;;;;;;4984225;28;20129;-75
2023/07/24 05:14:52;;;;;;;8.32;4.70;;;17.40;91.90;;;;;;4987609;28;20030;-73
2023/07/24 05:17:17;;;;;;;8.00;5.10;;;17.40;91.90;;;;;;4990022;28;20128;-75
2023/07/24 05:19:43;;;;;;;9.55;5.53;;;17.40;91.90;;;;;;4986295;28;20478;-74
2023/07/24 05:22:10;;;;;;;8.93;5.15;;;17.50;92.00;;;;;;4997962;28;20042;-73
2023/07/24 05:24:36;;;;;;;8.57;5.40;;;17.60;92.00;;;;;;4994098;28;20113;-75
2023/07/24 05:27:02;;;;;;;7.40;4.80;;;17.60;91.90;;;;;;4991659;28;20576;-72
2023/07/24 05:29:28;;;;;;;9.27;5.40;;;17.70;91.90;;;;;;4985069;28;20105;-72
2023/07/24 05:31:54;;;;;;;8.35;5.65;;;17.80;91.60;;;;;;4994662;28;20505;-74
2023/07/24 05:34:19;;;;;;;8.32;5.15;;;17.80;91.30;;;;;;4998003;28;20035;-74
2023/07/24 05:36:45;;;;;;;8.50;4.65;;;17.90;91.20;;;;;;4987906;28;20038;-74
2023/07/24 05:39:11;;;;;;;8.90;4.97;;;17.80;91.10;;;;;;4985063;28;20644;-74
2023/07/24 05:41:36;;;;;;;9.52;6.00;;;18.00;91.20;;;;;;4995303;28;20917;-73
2023/07/24 05:44:02;;;;;;;8.63;5.40;;;18.20;91.10;;;;;;4985089;28;20039;-75
2023/07/24 05:46:28;;;;;;;9.45;5.07;;;18.80;90.30;;;;;;4994062;28;20549;-76
2023/07/24 05:48:53;;;;;;;7.85;4.72;;;19.00;88.90;;;;;;4993624;28;20152;-73
2023/07/24 05:51:19;;;;;;;9.82;5.35;;;19.10;88.40;;;;;;5005398;28;20034;-75
2023/07/24 05:53:45;;;;;;;7.82;5.00;;;19.10;88.10;;;;;;4993381;28;20026;-73
2023/07/24 05:56:10;;;;;;;10.10;5.32;;;19.10;87.30;;;;;;4990597;28;20046;-74
2023/07/24 05:58:36;;;;;;;7.65;4.90;;;19.00;87.40;;;;;;4985735;28;20117;-75
2023/07/24 06:01:02;;;;;;;9.27;5.93;;;18.90;88.00;;;;;;4984755;28;20054;-74
2023/07/24 06:03:28;;;;;;;9.90;5.90;;;18.80;88.00;;;;;;4985143;28;20038;-74
2023/07/24 06:05:54;;;;;;;8.70;5.88;;;18.70;88.10;;;;;;4983862;28;20392;-73
2023/07/24 06:08:21;;;;;;;9.63;6.03;;;18.50;88.40;;;;;;4983276;28;20030;-74
2023/07/24 06:10:48;;;;;;;10.20;5.63;;;18.60;88.90;;;;;;4984750;28;20574;-75
2023/07/24 06:13:18;;;;;;;8.63;6.00;;;18.60;88.90;;;;;;4984663;28;20053;-74
2023/07/24 06:15:44;;;;;;;10.35;6.30;;;18.60;89.20;;;;;;4978655;28;20026;-73
2023/07/24 06:18:10;;;;;;;9.25;6.10;;;18.70;88.70;;;;;;4986207;28;20041;-74
2023/07/24 06:20:36;;;;;;;10.65;5.97;;;18.80;88.60;;;;;;4988595;28;20158;-74
2023/07/24 06:23:03;;;;;;;9.18;5.93;;;18.80;88.30;;;;;;4996116;28;20030;-74
2023/07/24 06:25:32;;;;;;;10.25;5.90;;;18.80;88.20;;;;;;4990022;28;20100;-73
2023/07/24 06:27:58;;;;;;;8.80;5.25;;;18.70;88.10;;;;;;4995047;28;21480;-73
2023/07/24 06:30:24;;;;;;;10.85;5.88;;;18.60;88.40;;;;;;4991816;28;20046;-75
2023/07/24 06:32:50;;;;;;;9.07;5.68;;;18.50;88.80;;;;;;4993966;28;20376;-73
2023/07/24 06:35:15;;;;;;;9.43;5.47;;;18.30;89.10;;;;;;4989452;28;20055;-73
2023/07/24 06:37:41;;;;;;;8.52;6.03;;;18.30;89.40;;;;;;4987306;28;20065;-74
2023/07/24 06:40:07;;;;;;;10.52;5.88;;;18.20;89.60;;;;;;4991900;28;20112;-73
2023/07/24 06:42:34;;;;;;;10.40;5.70;;;18.10;90.00;;;;;;4992913;28;20040;-73
2023/07/24 06:44:59;;;;;;;10.07;5.72;;;18.10;89.90;;;;;;4994107;28;20038;-73
2023/07/24 06:47:25;;;;;;;8.85;5.80;;;18.10;90.20;;;;;;4998756;28;20480;-74
2023/07/24 06:49:51;;;;;;;9.23;5.50;;;18.00;90.60;;;;;;4994861;28;20529;-74
2023/07/24 06:52:16;;;;;;;7.72;4.82;;;18.10;90.50;;;;;;4993477;28;20034;-74
2023/07/24 06:54:42;;;;;;;9.02;5.43;;;18.20;90.40;;;;;;4989219;28;20037;-73
2023/07/24 06:57:08;;;;;;;6.72;4.32;;;18.30;90.30;;;;;;4992856;28;20372;-74
2023/07/24 06:59:33;;;;;;;8.88;5.00;;;18.50;90.20;;;;;;4994385;28;20019;-75
2023/07/24 07:01:59;;;;;;;7.53;4.68;;;18.70;90.10;;;;;;4982053;28;20862;-74
2023/07/24 07:04:25;;;;;;;7.57;4.47;;;18.70;89.60;;;;;;4987907;28;20727;-74
2023/07/24 07:06:50;;;;;;;7.40;4.60;;;18.70;89.00;;;;;;4989009;28;20050;-74
2023/07/24 07:09:16;;;;;;;7.63;4.60;;;18.90;88.90;;;;;;4990837;28;20192;-73
2023/07/24 07:11:43;;;;;;;6.95;4.13;;;18.90;88.40;;;;;;4993013;28;20022;-74
2023/07/24 07:14:09;;;;;;;7.38;4.30;;;19.10;88.70;;;;;;4986766;28;20026;-73
2023/07/24 07:16:35;;;;;;;6.43;3.90;;;19.10;88.60;;;;;;4989415;28;20037;-74
2023/07/24 07:19:01;;;;;;;7.70;4.00;;;19.20;88.20;;;;;;4997393;28;20390;-75
2023/07/24 07:21:26;;;;;;;7.53;4.63;;;19.20;87.70;;;;;;4992900;28;20031;-72
2023/07/24 07:23:52;;;;;;;7.07;4.50;;;19.20;87.80;;;;;;4990747;28;20034;-72
2023/07/24 07:26:18;;;;;;;6.53;4.13;;;19.30;88.00;;;;;;4980735;28;20171;-73
2023/07/24 07:28:44;;;;;;;6.88;4.25;;;19.40;87.60;;;;;;4986602;28;20037;-73
2023/07/24 07:31:10;;;;;;;5.60;3.47;;;19.50;87.50;;;;;;4987307;28;20042;-73
2023/07/24 07:33:36;;;;;;;9.82;4.55;;;19.50;87.00;;;;;;4988305;28;20041;-76
2023/07/24 07:36:03;;;;;;;7.95;4.38;;;19.60;86.90;;;;;;4987051;28;20065;-74
2023/07/24 07:38:29;;;;;;;7.10;4.43;;;19.60;86.40;;;;;;4987458;28;20029;-76
2023/07/24 07:40:55;;;;;;;9.02;4.55;;;19.60;86.00;;;;;;4987880;28;20062;-80
2023/07/24 07:43:20;;;;;;;7.57;4.50;;;19.60;86.60;;;;;;4985786;28;20069;-76
2023/07/24 07:45:47;;;;;;;8.98;5.50;;;19.40;86.50;;;;;;4990225;28;20026;-80
2023/07/24 07:48:12;;;;;;;7.75;4.85;;;19.40;86.50;;;;;;4985617;28;20034;-79
2023/07/24 07:50:38;;;;;;;8.50;4.85;;;19.40;86.30;;;;;;4984625;28;20113;-79
2023/07/24 07:53:04;;;;;;;7.90;4.68;;;19.50;86.30;;;;;;4993133;28;20058;-79
2023/07/24 07:55:29;;;;;;;8.18;5.18;;;19.50;86.30;;;;;;4987632;28;20053;-80
2023/07/24 07:57:55;;;;;;;8.15;5.13;;;19.60;85.90;;;;;;4988957;28;20501;-78
2023/07/24 08:00:21;;;;;;;7.18;4.88;;;19.60;85.90;;;;;;4987640;28;20026;-79
2023/07/24 08:02:47;;;;;;;7.80;5.10;;;19.60;85.60;;;;;;4987002;28;20046;-77
2023/07/24 08:05:12;;;;;;;9.43;5.22;;;19.70;85.70;;;;;;4985662;28;20414;-78
2023/07/24 08:07:38;;;;;;;8.27;5.25;;;19.70;85.40;;;;;;5001059;28;20080;-80
2023/07/24 08:10:04;;;;;;;8.88;5.03;;;19.60;85.40;;;;;;4986131;28;20041;-82
2023/07/24 08:12:30;;;;;;;10.23;5.38;;;19.60;85.00;;;;;;4983601;28;20081;-79
2023/07/24 08:14:56;;;;;;;9.52;5.50;;;19.70;85.10;;;;;;4994638;28;20057;-80
2023/07/24 08:17:22;;;;;;;8.82;5.18;;;19.90;84.80;;;;;;4989212;28;20042;-79
2023/07/24 08:19:47;;;;;;;10.05;6.30;;;20.00;85.40;;;;;;4984345;28;20030;-82
2023/07/24 08:22:13;;;;;;;8.05;5.10;;;20.10;83.70;;;;;;4982868;28;20478;-82
2023/07/24 08:24:39;;;;;;;8.45;5.72;;;20.30;83.30;;;;;;4985510;28;20061;-81
2023/07/24 08:27:05;;;;;;;9.38;5.60;;;20.10;83.20;;;;;;4985863;28;20045;-81
2023/07/24 08:29:30;;;;;;;8.75;4.57;;;20.40;82.60;;;;;;4990895;28;20021;-78
2023/07/24 08:31:56;;;;;;;9.45;4.57;;;20.40;79.60;;;;;;4987005;28;20045;-81
2023/07/24 08:34:22;;;;;;;8.75;4.70;;;20.40;79.70;;;;;;4989427;28;20031;-80
2023/07/24 08:36:47;;;;;;;8.45;4.68;;;20.50;79.00;;;;;;4984874;28;20461;-80
2023/07/24 08:39:13;;;;;;;7.25;4.30;;;20.20;78.00;;;;;;4991059;28;20037;-79
2023/07/24 08:41:39;;;;;;;6.50;3.92;;;20.40;77.70;;;;;;4983754;28;20051;-77
2023/07/24 08:44:08;;;;;;;8.10;4.13;;;20.80;75.50;;;;;;4987439;28;20029;-79
2023/07/24 08:46:40;;;;;;;7.70;4.18;;;20.80;75.50;;;;;;4990152;28;20042;-79
2023/07/24 08:49:16;;;;;;;7.57;4.10;;;20.60;73.30;;;;;;4985459;28;20491;-77
2023/07/24 08:51:42;;;;;;;6.18;3.78;;;20.90;74.60;;;;;;4999407;28;20026;-81
2023/07/24 08:54:08;;;;;;;9.23;3.75;;;21.10;72.80;;;;;;4985332;28;20065;-76
2023/07/24 08:56:35;;;;;;;7.38;4.20;;;21.10;72.40;;;;;;5000120;28;20427;-79
2023/07/24 08:59:01;;;;;;;9.70;4.10;;;21.30;71.90;;;;;;4996550;28;20281;-78
2023/07/24 09:01:27;;;;;;;9.30;4.28;;;21.50;71.20;;;;;;4984855;28;20040;-80
2023/07/24 09:03:52;;;;;;;8.20;4.22;;;21.50;72.20;;;;;;4995115;28;20038;-82
2023/07/24 09:06:18;;;;;;;7.00;3.42;;;21.90;71.50;;;;;;4987962;28;20064;-78
2023/07/24 09:08:44;;;;;;;15.55;4.22;;;22.30;70.80;;;;;;4993382;28;20034;-78
2023/07/24 09:11:13;;;;;;;8.82;4.15;;;22.60;69.70;;;;;;4989240;28;20471;-81
2023/07/24 09:13:41;;;;;;;7.43;3.63;;;22.10;67.20;;;;;;4990209;28;20033;-82
2023/07/24 09:16:07;;;;;;;7.00;3.40;;;21.70;69.00;;;;;;4985857;28;20045;-76
2023/07/24 09:18:43;;;;;;;6.50;3.10;;;21.50;67.80;;;;;;4992811;28;20030;-81
2023/07/24 09:21:11;;;;;;;7.90;3.63;;;21.60;68.70;;;;;;4989232;28;20446;-82
2023/07/24 09:23:39;;;;;;;7.35;3.30;;;21.60;68.40;;;;;;4984245;28;20019;-82
2023/07/24 09:26:07;;;;;;;7.03;3.00;;;21.50;69.20;;;;;;4981457;28;20050;-82
2023/07/24 09:28:33;;;;;;;8.32;3.25;;;21.60;69.60;;;;;;4984684;28;20072;-82
2023/07/24 09:31:03;;;;;;;6.78;3.55;;;21.40;67.90;;;;;;4990780;28;20557;-82
2023/07/24 09:33:39;;;;;;;9.45;3.70;;;21.30;67.50;;;;;;4995470;28;20049;-86
2023/07/24 09:36:09;;;;;;;7.07;3.55;;;21.40;69.00;;;;;;4988796;28;20069;-78
2023/07/24 09:38:39;;;;;;;5.78;3.10;;;21.10;68.20;;;;;;4987623;28;20019;-78
2023/07/24 09:41:05;;;;;;;8.68;4.30;;;21.50;67.80;;;;;;4998356;28;20602;-79
2023/07/24 09:43:31;;;;;;;7.75;3.63;;;21.60;67.40;;;;;;4986895;28;20434;-78
2023/07/24 09:45:58;;;;;;;8.43;4.05;;;21.40;67.40;;;;;;4989121;28;20650;-79
2023/07/24 09:48:26;;;;;;;8.77;4.00;;;21.50;68.00;;;;;;4983226;28;20391;-78
2023/07/24 09:50:56;;;;;;;8.32;3.95;;;21.10;67.80;;;;;;5003586;28;20081;-78
2023/07/24 09:53:43;;;;;;;9.88;3.85;;;21.00;68.30;;;;;;4989888;28;20034;-78
2023/07/24 09:56:10;;;;;;;8.68;4.20;;;21.30;69.50;;;;;;4984291;28;20042;-82
2023/07/24 09:58:37;;;;;;;7.57;4.00;;;21.60;68.30;;;;;;4994236;28;20034;-82
2023/07/24 10:01:05;;;;;;;7.10;4.20;;;21.90;66.00;;;;;;5008145;28;20066;-81
2023/07/24 10:03:46;;;;;;;9.15;3.83;;;22.00;67.60;;;;;;4988602;28;20034;-81
2023/07/24 10:06:14;;;;;;;7.43;4.00;;;22.20;67.50;;;;;;4995641;28;20121;-79
2023/07/24 10:08:41;;;;;;;8.80;4.45;;;22.20;67.00;;;;;;5005954;28;20427;-80
2023/07/24 10:11:12;;;;;;;7.53;4.25;;;22.40;67.10;;;;;;4990195;28;20041;-80
2023/07/24 10:13:38;;;;;;;8.55;4.28;;;22.60;67.00;;;;;;4989678;28;20061;-82
2023/07/24 10:16:06;;;;;;;7.05;4.05;;;22.60;66.20;;;;;;4988247;28;20030;-77
2023/07/24 10:18:33;;;;;;;7.03;3.92;;;22.60;64.90;;;;;;4989309;28;20375;-80
2023/07/24 10:21:04;;;;;;;8.38;4.85;;;22.50;65.90;;;;;;4991636;28;20100;-78
2023/07/24 10:23:30;;;;;;;9.48;4.88;;;22.50;66.30;;;;;;4993826;28;20053;-80
2023/07/24 10:26:03;;;;;;;9.32;5.18;;;22.40;65.80;;;;;;4983647;28;20059;-80
2023/07/24 10:28:38;;;;;;;7.22;4.13;;;22.20;66.60;;;;;;4993518;28;20110;-78
2023/07/24 10:31:18;;;;;;;8.98;3.85;;;22.20;66.80;;;;;;4995476;28;20643;-79
2023/07/24 10:33:47;;;;;;;6.80;4.15;;;22.10;66.30;;;;;;4986325;28;20038;-80
2023/07/24 10:36:20;;;;;;;8.43;4.85;;;22.10;67.10;;;;;;5000214;28;20022;-86
2023/07/24 10:38:51;;;;;;;7.65;4.35;;;22.20;66.50;;;;;;4998002;28;20050;-81
2023/07/24 10:41:17;;;;;;;9.45;4.93;;;22.40;66.70;;;;;;4992740;28;20082;-79
2023/07/24 10:43:47;;;;;;;8.77;5.25;;;22.70;65.50;;;;;;4997156;28;20514;-82
2023/07/24 10:46:14;;;;;;;9.93;5.03;;;22.90;65.70;;;;;;4992974;28;20099;-83
2023/07/24 10:48:48;;;;;;;10.48;5.03;;;23.10;65.00;;;;;;4996689;28;20427;-83
2023/07/24 10:51:14;;;;;;;7.07;4.25;;;23.20;64.10;;;;;;4998292;28;20046;-81
2023/07/24 10:53:45;;;;;;;9.05;4.43;;;23.20;65.60;;;;;;4987661;28;20450;-83
2023/07/24 10:56:10;;;;;;;8.90;4.65;;;23.40;65.30;;;;;;4991465;28;20507;-83
2023/07/24 10:58:36;;;;;;;8.05;4.60;;;23.60;63.10;;;;;;4990419;28;20026;-83
2023/07/24 11:01:04;;;;;;;8.80;4.28;;;23.60;62.40;;;;;;4997962;28;20034;-83
2023/07/24 11:03:31;;;;;;;9.05;4.80;;;24.00;61.50;;;;;;5000697;28;20030;-83
2023/07/24 11:05:58;;;;;;;8.70;4.65;;;24.00;60.80;;;;;;4991007;28;20065;-80
2023/07/24 11:08:25;;;;;;;7.55;4.63;;;24.10;61.30;;;;;;4988984;28;20375;-81
2023/07/24 11:10:56;;;;;;;9.75;5.00;;;24.20;61.40;;;;;;4995807;28;20042;-83
2023/07/24 11:13:25;;;;;;;7.88;4.55;;;24.10;61.10;;;;;;4983077;28;20037;-81
2023/07/24 11:15:52;;;;;;;9.88;5.38;;;24.00;61.80;;;;;;4992761;28;20045;-83
2023/07/24 11:18:21;;;;;;;8.75;5.30;;;23.80;61.40;;;;;;4992249;28;20478;-84
2023/07/24 11:20:51;;;;;;;8.55;5.30;;;23.30;63.30;;;;;;4998645;28;20126;-82
2023/07/24 11:23:18;;;;;;;9.55;5.32;;;23.00;63.60;;;;;;5000223;28;20040;-80
2023/07/24 11:25:45;;;;;;;8.15;4.80;;;22.50;64.80;;;;;;4991348;28;20042;-82
2023/07/24 11:28:13;;;;;;;9.73;5.13;;;22.20;66.50;;;;;;4987351;28;20475;-79
2023/07/24 11:30:40;;;;;;;9.70;4.70;;;22.20;68.10;;;;;;4988250;28;20038;-82
2023/07/24 11:33:08;;;;;;;8.63;4.68;;;22.10;69.40;;;;;;4990478;28;20121;-81
2023/07/24 11:35:36;;;;;;;7.68;4.60;;;22.30;68.80;;;;;;4993938;28;20033;-82
2023/07/24 11:38:03;;;;;;;9.45;5.63;;;22.90;66.50;;;;;;4974736;28;20038;-83
2023/07/24 11:40:37;;;;;;;8.23;4.18;;;23.10;65.10;;;;;;4995823;28;20045;-81
2023/07/24 11:43:03;;;;;;;6.78;4.03;;;22.90;64.00;;;;;;4995836;28;20040;-84
2023/07/24 11:45:42;;;;;;;8.45;4.10;;;22.80;64.00;;;;;;4987387;28;20427;-79
2023/07/24 11:48:11;;;;;;;6.38;4.03;;;22.80;63.80;;;;;;4985413;28;20030;-77
2023/07/24 11:50:51;;;;;;;8.27;4.10;;;22.80;63.50;;;;;;4991901;28;20034;-81
2023/07/24 11:53:25;;;;;;;10.23;4.80;;;23.00;64.50;;;;;;4981235;28;20110;-79
2023/07/24 11:55:53;;;;;;;;;;;23.10;65.40;;;;;;4991565;28;20037;-79
2023/07/24 11:58:25;;;;;;;10.20;5.10;;;23.00;66.40;;;;;;4993845;28;20502;-81
2023/07/24 12:00:54;;;;;;;9.82;5.05;;;23.10;66.70;;;;;;4979283;28;20122;-79
2023/07/24 12:03:26;;;;;;;7.00;4.45;;;23.00;67.10;;;;;;4988611;28;20411;-79
2023/07/24 12:05:53;;;;;;;8.10;3.97;;;23.50;65.80;;;;;;4989829;28;20034;-79
2023/07/24 12:08:33;;;;;;;7.60;3.88;;;24.00;65.20;;;;;;4988291;28;20030;-79
2023/07/24 12:10:59;;;;;;;6.93;3.53;;;24.20;63.20;;;;;;4991161;28;20057;-78
2023/07/24 12:13:24;;;;;;;8.02;3.35;;;24.70;59.60;;;;;;4989543;28;20034;-79
2023/07/24 12:15:50;;;;;;;6.28;3.15;;;24.60;60.70;;;;;;4987706;28;20049;-79
2023/07/24 12:18:16;;;;;;;7.75;3.50;;;24.70;57.50;;;;;;4995593;28;20030;-79
2023/07/24 12:20:41;;;;;;;7.50;3.58;;;24.40;59.00;;;;;;4989491;28;20030;-78
2023/07/24 12:23:07;;;;;;;6.68;3.13;;;24.50;58.20;;;;;;4988627;28;20080;-79
2023/07/24 12:25:33;;;;;;;7.00;3.42;;;24.40;58.30;;;;;;5005098;28;20403;-76
2023/07/24 12:27:59;;;;;;;7.82;3.45;;;24.30;59.10;;;;;;4992757;28;21235;-81
2023/07/24 12:30:24;;;;;;;6.40;3.15;;;23.90;58.10;;;;;;5006445;28;20037;-82
2023/07/24 12:32:50;;;;;;;6.40;3.22;;;23.80;60.60;;;;;;4998243;28;20054;-78
2023/07/24 12:35:17;;;;;;;6.43;3.45;;;23.50;59.90;;;;;;4998154;28;20065;-79
2023/07/24 12:37:43;;;;;;;7.45;3.63;;;23.80;60.40;;;;;;4996178;28;20030;-78
2023/07/24 12:40:09;;;;;;;6.22;3.25;;;23.80;60.00;;;;;;4989131;28;20350;-78
2023/07/24 12:42:35;;;;;;;7.53;3.63;;;24.40;60.20;;;;;;4993779;28;20366;-78
2023/07/24 12:45:04;;;;;;;8.95;4.05;;;24.50;57.50;;;;;;4991637;28;20526;-79